sensor_id;sensor_type;location;lat;lon;timestamp;temperature;humidity
68746;SHT31;66104;45.456;11.064;2023-02-15T00:00:25;7.62;58.45
68746;SHT31;66104;45.456;11.064;2023-02-15T00:03:02;7.62;58.18
68746;SHT31;66104;45.456;11.064;2023-02-15T00:05:39;7.62;57.84
68746;SHT31;66104;45.456;11.064;2023-02-15T00:08:16;7.63;57.66
68746;SHT31;66104;45.456;11.064;2023-02-15T00:10:52;7.64;57.61
68746;SHT31;66104;45.456;11.064;2023-02-15T00:13:36;7.66;57.62
68746;SHT31;66104;45.456;11.064;2023-02-15T00:16:14;7.65;57.76
68746;SHT31;66104;45.456;11.064;2023-02-15T00:18:51;7.63;57.72
68746;SHT31;66104;45.456;11.064;2023-02-15T00:21:30;7.60;57.75
68746;SHT31;66104;45.456;11.064;2023-02-15T00:24:09;7.53;58.40
68746;SHT31;66104;45.456;11.064;2023-02-15T00:26:48;7.42;59.15
68746;SHT31;66104;45.456;11.064;2023-02-15T00:29:24;7.31;59.65
68746;SHT31;66104;45.456;11.064;2023-02-15T00:32:02;7.22;59.92
68746;SHT31;66104;45.456;11.064;2023-02-15T00:34:39;7.17;59.98
68746;SHT31;66104;45.456;11.064;2023-02-15T00:37:15;7.12;59.84
68746;SHT31;66104;45.456;11.064;2023-02-15T00:39:51;7.06;59.87
68746;SHT31;66104;45.456;11.064;2023-02-15T00:42:31;7.01;60.13
68746;SHT31;66104;45.456;11.064;2023-02-15T00:45:10;6.99;60.48
68746;SHT31;66104;45.456;11.064;2023-02-15T00:47:47;6.96;60.84
68746;SHT31;66104;45.456;11.064;2023-02-15T00:50:25;6.93;61.20
68746;SHT31;66104;45.456;11.064;2023-02-15T00:53:01;6.89;61.54
68746;SHT31;66104;45.456;11.064;2023-02-15T00:55:37;6.91;61.92
68746;SHT31;66104;45.456;11.064;2023-02-15T00:58:14;6.90;61.83
68746;SHT31;66104;45.456;11.064;2023-02-15T01:00:50;6.89;61.45
68746;SHT31;66104;45.456;11.064;2023-02-15T01:03:26;6.85;61.34
68746;SHT31;66104;45.456;11.064;2023-02-15T01:06:03;6.80;61.48
68746;SHT31;66104;45.456;11.064;2023-02-15T02:00:54;6.19;63.52
68746;SHT31;66104;45.456;11.064;2023-02-15T02:03:36;6.20;63.41
68746;SHT31;66104;45.456;11.064;2023-02-15T02:06:27;6.21;63.42
68746;SHT31;66104;45.456;11.064;2023-02-15T02:09:07;6.23;63.20
68746;SHT31;66104;45.456;11.064;2023-02-15T02:11:45;6.23;62.93
68746;SHT31;66104;45.456;11.064;2023-02-15T02:14:22;6.25;62.41
68746;SHT31;66104;45.456;11.064;2023-02-15T02:17:02;6.23;62.30
68746;SHT31;66104;45.456;11.064;2023-02-15T02:19:57;6.19;62.52
68746;SHT31;66104;45.456;11.064;2023-02-15T02:36:32;6.20;62.43
68746;SHT31;66104;45.456;11.064;2023-02-15T02:39:23;6.17;62.27
68746;SHT31;66104;45.456;11.064;2023-02-15T02:42:11;6.16;62.17
68746;SHT31;66104;45.456;11.064;2023-02-15T02:44:58;6.15;62.10
68746;SHT31;66104;45.456;11.064;2023-02-15T02:47:45;6.13;62.10
68746;SHT31;66104;45.456;11.064;2023-02-15T02:50:28;6.09;62.13
68746;SHT31;66104;45.456;11.064;2023-02-15T02:53:05;6.10;62.10
68746;SHT31;66104;45.456;11.064;2023-02-15T02:55:42;6.07;62.15
68746;SHT31;66104;45.456;11.064;2023-02-15T02:58:26;6.10;62.12
68746;SHT31;66104;45.456;11.064;2023-02-15T03:01:11;6.14;61.81
68746;SHT31;66104;45.456;11.064;2023-02-15T03:03:55;6.18;61.46
68746;SHT31;66104;45.456;11.064;2023-02-15T03:06:36;6.22;61.29
68746;SHT31;66104;45.456;11.064;2023-02-15T03:09:21;6.25;61.20
68746;SHT31;66104;45.456;11.064;2023-02-15T03:12:11;6.30;61.05
68746;SHT31;66104;45.456;11.064;2023-02-15T03:14:53;6.35;60.81
68746;SHT31;66104;45.456;11.064;2023-02-15T03:17:34;6.38;60.53
68746;SHT31;66104;45.456;11.064;2023-02-15T03:20:18;6.41;60.24
68746;SHT31;66104;45.456;11.064;2023-02-15T03:23:02;6.43;60.07
68746;SHT31;66104;45.456;11.064;2023-02-15T03:25:46;6.45;59.87
68746;SHT31;66104;45.456;11.064;2023-02-15T03:28:31;6.46;59.57
68746;SHT31;66104;45.456;11.064;2023-02-15T03:31:13;6.48;59.37
68746;SHT31;66104;45.456;11.064;2023-02-15T03:33:53;6.50;59.25
68746;SHT31;66104;45.456;11.064;2023-02-15T03:36:36;6.52;59.12
68746;SHT31;66104;45.456;11.064;2023-02-15T03:39:24;6.55;59.04
68746;SHT31;66104;45.456;11.064;2023-02-15T03:42:10;6.58;58.96
68746;SHT31;66104;45.456;11.064;2023-02-15T03:44:57;6.60;58.88
68746;SHT31;66104;45.456;11.064;2023-02-15T03:47:42;6.63;58.73
68746;SHT31;66104;45.456;11.064;2023-02-15T03:50:24;6.66;58.56
68746;SHT31;66104;45.456;11.064;2023-02-15T03:53:23;6.68;58.61
68746;SHT31;66104;45.456;11.064;2023-02-15T03:56:00;6.71;58.47
68746;SHT31;66104;45.456;11.064;2023-02-15T03:58:37;6.73;58.23
68746;SHT31;66104;45.456;11.064;2023-02-15T04:01:33;6.73;57.95
68746;SHT31;66104;45.456;11.064;2023-02-15T04:04:30;6.76;57.80
68746;SHT31;66104;45.456;11.064;2023-02-15T04:07:09;6.77;57.70
68746;SHT31;66104;45.456;11.064;2023-02-15T04:09:46;6.78;57.70
68746;SHT31;66104;45.456;11.064;2023-02-15T04:12:39;6.80;57.68
68746;SHT31;66104;45.456;11.064;2023-02-15T04:15:16;6.81;57.66
68746;SHT31;66104;45.456;11.064;2023-02-15T04:18:10;6.85;57.69
68746;SHT31;66104;45.456;11.064;2023-02-15T04:20:47;6.86;57.56
68746;SHT31;66104;45.456;11.064;2023-02-15T04:23:40;6.86;57.46
68746;SHT31;66104;45.456;11.064;2023-02-15T04:26:33;6.84;57.27
68746;SHT31;66104;45.456;11.064;2023-02-15T04:29:10;6.85;57.13
68746;SHT31;66104;45.456;11.064;2023-02-15T04:31:49;6.87;56.77
68746;SHT31;66104;45.456;11.064;2023-02-15T04:34:26;6.90;56.54
68746;SHT31;66104;45.456;11.064;2023-02-15T04:37:04;6.94;56.44
68746;SHT31;66104;45.456;11.064;2023-02-15T04:39:41;6.96;56.62
68746;SHT31;66104;45.456;11.064;2023-02-15T04:42:18;6.93;57.16
68746;SHT31;66104;45.456;11.064;2023-02-15T04:44:55;6.84;57.88
68746;SHT31;66104;45.456;11.064;2023-02-15T04:47:33;6.73;58.34
68746;SHT31;66104;45.456;11.064;2023-02-15T04:50:11;6.66;58.75
68746;SHT31;66104;45.456;11.064;2023-02-15T04:52:47;6.57;59.13
68746;SHT31;66104;45.456;11.064;2023-02-15T04:55:24;6.56;58.52
68746;SHT31;66104;45.456;11.064;2023-02-15T04:58:02;6.59;58.41
68746;SHT31;66104;45.456;11.064;2023-02-15T05:00:39;6.57;59.14
68746;SHT31;66104;45.456;11.064;2023-02-15T05:03:15;6.51;59.58
68746;SHT31;66104;45.456;11.064;2023-02-15T05:05:53;6.43;60.32
68746;SHT31;66104;45.456;11.064;2023-02-15T05:08:29;6.39;60.58
68746;SHT31;66104;45.456;11.064;2023-02-15T05:11:06;6.36;60.74
68746;SHT31;66104;45.456;11.064;2023-02-15T05:13:43;6.32;61.40
68746;SHT31;66104;45.456;11.064;2023-02-15T05:16:20;6.32;61.37
68746;SHT31;66104;45.456;11.064;2023-02-15T05:18:58;6.31;61.16
68746;SHT31;66104;45.456;11.064;2023-02-15T05:21:35;6.22;60.60
68746;SHT31;66104;45.456;11.064;2023-02-15T05:24:12;6.09;60.78
68746;SHT31;66104;45.456;11.064;2023-02-15T05:27:09;5.99;61.26
68746;SHT31;66104;45.456;11.064;2023-02-15T05:30:04;5.92;61.48
68746;SHT31;66104;45.456;11.064;2023-02-15T05:32:46;5.89;61.70
68746;SHT31;66104;45.456;11.064;2023-02-15T05:35:23;5.87;61.93
68746;SHT31;66104;45.456;11.064;2023-02-15T05:38:02;5.87;61.97
68746;SHT31;66104;45.456;11.064;2023-02-15T05:40:39;5.83;61.63
68746;SHT31;66104;45.456;11.064;2023-02-15T05:43:18;5.79;61.30
68746;SHT31;66104;45.456;11.064;2023-02-15T05:45:55;5.75;60.90
68746;SHT31;66104;45.456;11.064;2023-02-15T05:48:33;5.72;60.86
68746;SHT31;66104;45.456;11.064;2023-02-15T05:51:10;5.68;61.04
68746;SHT31;66104;45.456;11.064;2023-02-15T05:53:46;5.67;61.33
68746;SHT31;66104;45.456;11.064;2023-02-15T05:56:23;5.68;61.60
68746;SHT31;66104;45.456;11.064;2023-02-15T05:59:00;5.69;61.73
68746;SHT31;66104;45.456;11.064;2023-02-15T06:01:37;5.69;62.07
68746;SHT31;66104;45.456;11.064;2023-02-15T06:04:14;5.74;62.33
68746;SHT31;66104;45.456;11.064;2023-02-15T06:06:51;5.77;62.11
68746;SHT31;66104;45.456;11.064;2023-02-15T06:09:28;5.75;62.06
68746;SHT31;66104;45.456;11.064;2023-02-15T06:12:05;5.73;62.09
68746;SHT31;66104;45.456;11.064;2023-02-15T06:14:42;5.72;62.21
68746;SHT31;66104;45.456;11.064;2023-02-15T06:17:19;5.72;62.28
68746;SHT31;66104;45.456;11.064;2023-02-15T06:19:56;5.71;62.64
68746;SHT31;66104;45.456;11.064;2023-02-15T06:25:10;5.72;62.89
68746;SHT31;66104;45.456;11.064;2023-02-15T06:27:49;5.74;62.53
68746;SHT31;66104;45.456;11.064;2023-02-15T06:30:26;5.82;62.29
68746;SHT31;66104;45.456;11.064;2023-02-15T06:33:03;5.85;62.14
68746;SHT31;66104;45.456;11.064;2023-02-15T06:35:39;5.85;61.93
68746;SHT31;66104;45.456;11.064;2023-02-15T06:38:16;5.81;62.01
68746;SHT31;66104;45.456;11.064;2023-02-15T06:40:52;5.79;62.11
68746;SHT31;66104;45.456;11.064;2023-02-15T06:43:29;5.76;62.25
68746;SHT31;66104;45.456;11.064;2023-02-15T06:46:08;5.78;62.31
68746;SHT31;66104;45.456;11.064;2023-02-15T06:48:45;5.83;62.17
68746;SHT31;66104;45.456;11.064;2023-02-15T06:51:22;5.89;62.09
68746;SHT31;66104;45.456;11.064;2023-02-15T06:53:59;5.97;61.94
68746;SHT31;66104;45.456;11.064;2023-02-15T06:56:36;6.06;61.87
68746;SHT31;66104;45.456;11.064;2023-02-15T06:59:12;6.12;61.66
68746;SHT31;66104;45.456;11.064;2023-02-15T07:01:50;6.18;61.45
68746;SHT31;66104;45.456;11.064;2023-02-15T07:04:28;6.22;61.36
68746;SHT31;66104;45.456;11.064;2023-02-15T07:07:07;6.23;61.40
68746;SHT31;66104;45.456;11.064;2023-02-15T07:09:45;6.30;61.36
68746;SHT31;66104;45.456;11.064;2023-02-15T07:12:22;6.37;61.29
68746;SHT31;66104;45.456;11.064;2023-02-15T07:15:16;6.46;61.30
68746;SHT31;66104;45.456;11.064;2023-02-15T07:17:54;6.54;61.21
68746;SHT31;66104;45.456;11.064;2023-02-15T07:20:31;6.61;61.13
68746;SHT31;66104;45.456;11.064;2023-02-15T07:23:07;6.69;60.83
68746;SHT31;66104;45.456;11.064;2023-02-15T07:25:44;6.78;60.62
68746;SHT31;66104;45.456;11.064;2023-02-15T07:28:27;6.86;60.45
68746;SHT31;66104;45.456;11.064;2023-02-15T07:31:04;6.95;60.22
68746;SHT31;66104;45.456;11.064;2023-02-15T07:33:41;7.03;60.19
68746;SHT31;66104;45.456;11.064;2023-02-15T07:36:17;7.10;60.13
68746;SHT31;66104;45.456;11.064;2023-02-15T07:38:55;7.08;60.32
68746;SHT31;66104;45.456;11.064;2023-02-15T07:41:31;7.11;60.40
68746;SHT31;66104;45.456;11.064;2023-02-15T07:44:13;7.16;60.46
68746;SHT31;66104;45.456;11.064;2023-02-15T07:46:50;7.23;60.31
68746;SHT31;66104;45.456;11.064;2023-02-15T07:49:27;7.30;60.11
68746;SHT31;66104;45.456;11.064;2023-02-15T07:52:04;7.39;59.77
68746;SHT31;66104;45.456;11.064;2023-02-15T07:54:42;7.49;59.59
68746;SHT31;66104;45.456;11.064;2023-02-15T07:57:19;7.57;59.52
68746;SHT31;66104;45.456;11.064;2023-02-15T07:59:56;7.67;59.43
68746;SHT31;66104;45.456;11.064;2023-02-15T08:02:40;7.77;59.29
68746;SHT31;66104;45.456;11.064;2023-02-15T08:05:45;7.92;59.23
68746;SHT31;66104;45.456;11.064;2023-02-15T08:08:22;8.07;58.98
68746;SHT31;66104;45.456;11.064;2023-02-15T08:11:02;8.22;59.01
68746;SHT31;66104;45.456;11.064;2023-02-15T08:14:02;8.35;58.81
68746;SHT31;66104;45.456;11.064;2023-02-15T08:16:41;8.49;58.50
68746;SHT31;66104;45.456;11.064;2023-02-15T08:19:18;8.63;57.87
68746;SHT31;66104;45.456;11.064;2023-02-15T08:21:55;8.74;57.56
68746;SHT31;66104;45.456;11.064;2023-02-15T08:24:34;8.85;57.35
68746;SHT31;66104;45.456;11.064;2023-02-15T08:27:11;8.97;57.40
68746;SHT31;66104;45.456;11.064;2023-02-15T08:29:55;9.09;57.47
68746;SHT31;66104;45.456;11.064;2023-02-15T08:32:33;9.21;57.87
68746;SHT31;66104;45.456;11.064;2023-02-15T08:35:11;9.31;57.82
68746;SHT31;66104;45.456;11.064;2023-02-15T08:37:48;9.40;57.95
68746;SHT31;66104;45.456;11.064;2023-02-15T08:40:26;9.51;57.90
68746;SHT31;66104;45.456;11.064;2023-02-15T08:43:03;9.59;57.54
68746;SHT31;66104;45.456;11.064;2023-02-15T08:45:39;9.67;57.16
68746;SHT31;66104;45.456;11.064;2023-02-15T08:48:15;9.75;57.02
68746;SHT31;66104;45.456;11.064;2023-02-15T08:50:52;9.82;56.53
68746;SHT31;66104;45.456;11.064;2023-02-15T08:53:29;9.89;56.17
68746;SHT31;66104;45.456;11.064;2023-02-15T08:56:07;9.95;56.14
68746;SHT31;66104;45.456;11.064;2023-02-15T08:58:44;10.00;55.88
68746;SHT31;66104;45.456;11.064;2023-02-15T09:01:21;10.07;55.75
68746;SHT31;66104;45.456;11.064;2023-02-15T09:04:01;10.14;55.61
68746;SHT31;66104;45.456;11.064;2023-02-15T09:06:39;10.22;55.38
68746;SHT31;66104;45.456;11.064;2023-02-15T09:09:17;10.30;55.18
68746;SHT31;66104;45.456;11.064;2023-02-15T09:11:55;10.37;55.06
68746;SHT31;66104;45.456;11.064;2023-02-15T09:14:33;10.46;55.09
68746;SHT31;66104;45.456;11.064;2023-02-15T09:17:10;10.55;54.97
68746;SHT31;66104;45.456;11.064;2023-02-15T09:19:46;10.63;54.64
68746;SHT31;66104;45.456;11.064;2023-02-15T09:22:23;10.72;54.48
68746;SHT31;66104;45.456;11.064;2023-02-15T09:25:01;10.81;54.15
68746;SHT31;66104;45.456;11.064;2023-02-15T09:27:39;10.89;53.79
68746;SHT31;66104;45.456;11.064;2023-02-15T09:30:15;10.97;53.11
68746;SHT31;66104;45.456;11.064;2023-02-15T09:32:53;11.05;52.81
68746;SHT31;66104;45.456;11.064;2023-02-15T09:35:31;11.13;52.39
68746;SHT31;66104;45.456;11.064;2023-02-15T09:38:09;11.20;52.50
68746;SHT31;66104;45.456;11.064;2023-02-15T09:40:48;11.27;51.82
68746;SHT31;66104;45.456;11.064;2023-02-15T09:43:40;11.36;52.06
68746;SHT31;66104;45.456;11.064;2023-02-15T09:46:35;11.45;51.83
68746;SHT31;66104;45.456;11.064;2023-02-15T09:49:30;11.56;51.60
68746;SHT31;66104;45.456;11.064;2023-02-15T09:52:20;11.64;51.37
68746;SHT31;66104;45.456;11.064;2023-02-15T09:55:22;11.74;51.21
68746;SHT31;66104;45.456;11.064;2023-02-15T09:58:17;11.87;51.05
68746;SHT31;66104;45.456;11.064;2023-02-15T10:01:05;11.97;50.81
68746;SHT31;66104;45.456;11.064;2023-02-15T10:03:58;12.04;50.24
68746;SHT31;66104;45.456;11.064;2023-02-15T10:06:59;12.15;50.02
68746;SHT31;66104;45.456;11.064;2023-02-15T10:09:51;12.24;50.12
68746;SHT31;66104;45.456;11.064;2023-02-15T10:12:55;12.33;50.05
68746;SHT31;66104;45.456;11.064;2023-02-15T10:16:17;12.47;49.78
68746;SHT31;66104;45.456;11.064;2023-02-15T10:19:08;12.59;49.50
68746;SHT31;66104;45.456;11.064;2023-02-15T10:22:00;12.69;49.18
68746;SHT31;66104;45.456;11.064;2023-02-15T10:25:00;12.78;49.05
68746;SHT31;66104;45.456;11.064;2023-02-15T10:28:03;12.90;48.64
68746;SHT31;66104;45.456;11.064;2023-02-15T10:30:48;12.99;48.23
68746;SHT31;66104;45.456;11.064;2023-02-15T10:33:33;13.10;48.04
68746;SHT31;66104;45.456;11.064;2023-02-15T10:36:19;13.20;47.59
68746;SHT31;66104;45.456;11.064;2023-02-15T10:39:18;13.33;47.27
68746;SHT31;66104;45.456;11.064;2023-02-15T10:42:07;13.42;46.80
68746;SHT31;66104;45.456;11.064;2023-02-15T10:45:03;13.54;46.60
68746;SHT31;66104;45.456;11.064;2023-02-15T10:47:58;13.66;46.16
68746;SHT31;66104;45.456;11.064;2023-02-15T10:50:53;13.75;45.85
68746;SHT31;66104;45.456;11.064;2023-02-15T10:56:42;13.98;45.44
68746;SHT31;66104;45.456;11.064;2023-02-15T10:59:39;14.07;44.98
68746;SHT31;66104;45.456;11.064;2023-02-15T11:02:52;14.16;44.61
68746;SHT31;66104;45.456;11.064;2023-02-15T11:05:54;14.25;44.71
68746;SHT31;66104;45.456;11.064;2023-02-15T11:08:42;14.33;44.25
68746;SHT31;66104;45.456;11.064;2023-02-15T11:11:22;14.40;44.38
68746;SHT31;66104;45.456;11.064;2023-02-15T11:14:08;14.47;44.48
68746;SHT31;66104;45.456;11.064;2023-02-15T11:16:50;14.56;44.52
68746;SHT31;66104;45.456;11.064;2023-02-15T11:19:34;14.64;44.10
68746;SHT31;66104;45.456;11.064;2023-02-15T11:22:22;14.72;43.90
68746;SHT31;66104;45.456;11.064;2023-02-15T11:25:00;14.77;43.63
68746;SHT31;66104;45.456;11.064;2023-02-15T11:27:50;14.81;43.65
68746;SHT31;66104;45.456;11.064;2023-02-15T11:30:29;14.87;43.79
68746;SHT31;66104;45.456;11.064;2023-02-15T11:33:17;14.93;43.69
68746;SHT31;66104;45.456;11.064;2023-02-15T11:36:03;14.98;43.69
68746;SHT31;66104;45.456;11.064;2023-02-15T11:38:46;15.05;43.60
68746;SHT31;66104;45.456;11.064;2023-02-15T11:41:29;15.14;43.63
68746;SHT31;66104;45.456;11.064;2023-02-15T11:44:14;15.23;43.50
68746;SHT31;66104;45.456;11.064;2023-02-15T11:46:57;15.30;43.27
68746;SHT31;66104;45.456;11.064;2023-02-15T11:49:34;15.35;43.17
68746;SHT31;66104;45.456;11.064;2023-02-15T11:52:13;15.39;43.16
68746;SHT31;66104;45.456;11.064;2023-02-15T11:54:51;15.42;42.93
68746;SHT31;66104;45.456;11.064;2023-02-15T11:57:33;15.45;42.72
68746;SHT31;66104;45.456;11.064;2023-02-15T12:00:16;15.49;42.73
68746;SHT31;66104;45.456;11.064;2023-02-15T12:06:00;15.58;42.52
68746;SHT31;66104;45.456;11.064;2023-02-15T12:08:46;15.63;42.50
68746;SHT31;66104;45.456;11.064;2023-02-15T12:11:32;15.67;42.28
68746;SHT31;66104;45.456;11.064;2023-02-15T12:14:11;15.72;42.44
68746;SHT31;66104;45.456;11.064;2023-02-15T12:16:50;15.79;42.44
68746;SHT31;66104;45.456;11.064;2023-02-15T12:25:22;16.03;41.64
68746;SHT31;66104;45.456;11.064;2023-02-15T12:28:02;16.07;41.65
68746;SHT31;66104;45.456;11.064;2023-02-15T12:30:55;16.13;41.50
68746;SHT31;66104;45.456;11.064;2023-02-15T12:33:35;16.19;41.15
68746;SHT31;66104;45.456;11.064;2023-02-15T12:36:17;16.24;40.31
68746;SHT31;66104;45.456;11.064;2023-02-15T12:39:18;16.26;40.16
68746;SHT31;66104;45.456;11.064;2023-02-15T12:42:02;16.30;40.67
68746;SHT31;66104;45.456;11.064;2023-02-15T12:44:55;16.35;40.61
68746;SHT31;66104;45.456;11.064;2023-02-15T12:47:35;16.41;40.12
68746;SHT31;66104;45.456;11.064;2023-02-15T12:50:21;16.46;40.32
68746;SHT31;66104;45.456;11.064;2023-02-15T12:53:08;16.51;39.90
68746;SHT31;66104;45.456;11.064;2023-02-15T12:55:53;16.51;39.43
68746;SHT31;66104;45.456;11.064;2023-02-15T12:58:30;16.54;38.99
68746;SHT31;66104;45.456;11.064;2023-02-15T13:04:03;16.59;39.30
68746;SHT31;66104;45.456;11.064;2023-02-15T13:06:57;16.63;39.33
68746;SHT31;66104;45.456;11.064;2023-02-15T13:09:37;16.67;39.42
68746;SHT31;66104;45.456;11.064;2023-02-15T13:15:22;16.78;38.73
68746;SHT31;66104;45.456;11.064;2023-02-15T13:18:05;16.82;38.64
68746;SHT31;66104;45.456;11.064;2023-02-15T13:20:53;16.81;38.72
68746;SHT31;66104;45.456;11.064;2023-02-15T13:23:32;16.83;38.50
68746;SHT31;66104;45.456;11.064;2023-02-15T13:26:11;16.86;38.33
68746;SHT31;66104;45.456;11.064;2023-02-15T13:28:54;16.89;38.33
68746;SHT31;66104;45.456;11.064;2023-02-15T13:31:37;16.94;38.12
68746;SHT31;66104;45.456;11.064;2023-02-15T13:34:16;16.97;37.53
68746;SHT31;66104;45.456;11.064;2023-02-15T13:36:57;16.99;37.46
68746;SHT31;66104;45.456;11.064;2023-02-15T13:39:47;17.02;37.35
68746;SHT31;66104;45.456;11.064;2023-02-15T13:42:36;17.05;37.69
68746;SHT31;66104;45.456;11.064;2023-02-15T13:45:25;17.07;37.48
68746;SHT31;66104;45.456;11.064;2023-02-15T13:48:17;17.08;37.34
68746;SHT31;66104;45.456;11.064;2023-02-15T13:51:19;17.10;36.79
68746;SHT31;66104;45.456;11.064;2023-02-15T13:54:08;17.13;36.80
68746;SHT31;66104;45.456;11.064;2023-02-15T13:57:16;17.16;36.76
68746;SHT31;66104;45.456;11.064;2023-02-15T14:00:16;17.20;36.87
68746;SHT31;66104;45.456;11.064;2023-02-15T14:06:49;17.23;37.20
68746;SHT31;66104;45.456;11.064;2023-02-15T14:09:51;17.25;37.27
68746;SHT31;66104;45.456;11.064;2023-02-15T14:12:55;17.26;37.29
68746;SHT31;66104;45.456;11.064;2023-02-15T14:16:33;17.27;37.38
68746;SHT31;66104;45.456;11.064;2023-02-15T14:19:37;17.29;37.37
68746;SHT31;66104;45.456;11.064;2023-02-15T14:22:23;17.28;37.40
68746;SHT31;66104;45.456;11.064;2023-02-15T14:25:12;17.29;37.37
68746;SHT31;66104;45.456;11.064;2023-02-15T14:28:02;17.27;37.34
68746;SHT31;66104;45.456;11.064;2023-02-15T14:30:48;17.23;37.31
68746;SHT31;66104;45.456;11.064;2023-02-15T14:33:31;17.25;37.36
68746;SHT31;66104;45.456;11.064;2023-02-15T14:36:13;17.21;37.46
68746;SHT31;66104;45.456;11.064;2023-02-15T14:38:56;17.17;37.80
68746;SHT31;66104;45.456;11.064;2023-02-15T14:42:06;17.14;38.07
68746;SHT31;66104;45.456;11.064;2023-02-15T14:44:57;17.10;38.22
68746;SHT31;66104;45.456;11.064;2023-02-15T14:47:48;17.06;38.30
68746;SHT31;66104;45.456;11.064;2023-02-15T14:50:49;17.01;38.16
68746;SHT31;66104;45.456;11.064;2023-02-15T14:53:35;16.96;38.21
68746;SHT31;66104;45.456;11.064;2023-02-15T14:56:20;16.95;38.15
68746;SHT31;66104;45.456;11.064;2023-02-15T14:59:11;16.90;38.25
68746;SHT31;66104;45.456;11.064;2023-02-15T15:01:55;16.86;38.40
68746;SHT31;66104;45.456;11.064;2023-02-15T15:04:42;16.81;38.48
68746;SHT31;66104;45.456;11.064;2023-02-15T15:07:37;16.79;38.76
68746;SHT31;66104;45.456;11.064;2023-02-15T15:10:40;16.76;38.77
68746;SHT31;66104;45.456;11.064;2023-02-15T15:16:27;16.69;38.78
68746;SHT31;66104;45.456;11.064;2023-02-15T15:22:45;16.62;38.68
68746;SHT31;66104;45.456;11.064;2023-02-15T15:25:43;16.60;38.89
68746;SHT31;66104;45.456;11.064;2023-02-15T15:31:34;16.54;38.96
68746;SHT31;66104;45.456;11.064;2023-02-15T15:34:20;16.50;39.05
68746;SHT31;66104;45.456;11.064;2023-02-15T15:40:58;16.36;39.60
68746;SHT31;66104;45.456;11.064;2023-02-15T15:47:43;16.23;39.76
68746;SHT31;66104;45.456;11.064;2023-02-15T15:50:35;16.17;40.04
68746;SHT31;66104;45.456;11.064;2023-02-15T15:53:18;16.12;40.21
68746;SHT31;66104;45.456;11.064;2023-02-15T15:55:59;16.06;40.34
68746;SHT31;66104;45.456;11.064;2023-02-15T15:58:44;16.01;40.45
68746;SHT31;66104;45.456;11.064;2023-02-15T16:01:28;15.96;40.69
68746;SHT31;66104;45.456;11.064;2023-02-15T16:04:13;15.88;40.81
68746;SHT31;66104;45.456;11.064;2023-02-15T16:07:12;15.83;41.04
68746;SHT31;66104;45.456;11.064;2023-02-15T16:09:57;15.77;41.24
68746;SHT31;66104;45.456;11.064;2023-02-15T16:12:36;15.70;41.31
68746;SHT31;66104;45.456;11.064;2023-02-15T16:15:18;15.64;41.48
68746;SHT31;66104;45.456;11.064;2023-02-15T16:17:58;15.58;41.69
68746;SHT31;66104;45.456;11.064;2023-02-15T16:20:34;15.52;41.82
68746;SHT31;66104;45.456;11.064;2023-02-15T16:23:16;15.46;41.81
68746;SHT31;66104;45.456;11.064;2023-02-15T16:26:34;15.39;42.02
68746;SHT31;66104;45.456;11.064;2023-02-15T16:29:42;15.31;42.24
68746;SHT31;66104;45.456;11.064;2023-02-15T16:32:21;15.25;42.36
68746;SHT31;66104;45.456;11.064;2023-02-15T16:34:59;15.19;42.51
68746;SHT31;66104;45.456;11.064;2023-02-15T16:37:45;15.10;42.74
68746;SHT31;66104;45.456;11.064;2023-02-15T16:40:34;15.04;42.96
68746;SHT31;66104;45.456;11.064;2023-02-15T16:43:28;14.97;43.19
68746;SHT31;66104;45.456;11.064;2023-02-15T16:46:08;14.91;43.98
68746;SHT31;66104;45.456;11.064;2023-02-15T16:48:51;14.80;44.47
68746;SHT31;66104;45.456;11.064;2023-02-15T16:51:33;14.69;44.85
68746;SHT31;66104;45.456;11.064;2023-02-15T16:54:18;14.56;45.17
68746;SHT31;66104;45.456;11.064;2023-02-15T16:56:57;14.41;45.35
68746;SHT31;66104;45.456;11.064;2023-02-15T16:59:36;14.29;45.48
68746;SHT31;66104;45.456;11.064;2023-02-15T17:02:18;14.17;45.38
68746;SHT31;66104;45.456;11.064;2023-02-15T17:05:18;13.97;45.40
68746;SHT31;66104;45.456;11.064;2023-02-15T17:08:10;13.78;45.77
68746;SHT31;66104;45.456;11.064;2023-02-15T17:11:03;13.64;46.08
68746;SHT31;66104;45.456;11.064;2023-02-15T17:17:13;13.33;46.50
68746;SHT31;66104;45.456;11.064;2023-02-15T17:19:52;13.22;46.78
68746;SHT31;66104;45.456;11.064;2023-02-15T17:22:30;13.10;46.98
68746;SHT31;66104;45.456;11.064;2023-02-15T17:25:18;12.96;47.22
68746;SHT31;66104;45.456;11.064;2023-02-15T17:28:04;12.84;47.50
68746;SHT31;66104;45.456;11.064;2023-02-15T17:30:52;12.72;47.78
68746;SHT31;66104;45.456;11.064;2023-02-15T17:33:36;12.62;48.02
68746;SHT31;66104;45.456;11.064;2023-02-15T17:36:13;12.54;48.18
68746;SHT31;66104;45.456;11.064;2023-02-15T17:41:54;12.41;48.53
68746;SHT31;66104;45.456;11.064;2023-02-15T17:44:31;12.35;48.59
68746;SHT31;66104;45.456;11.064;2023-02-15T17:47:08;12.28;48.61
68746;SHT31;66104;45.456;11.064;2023-02-15T17:49:51;12.24;48.88
68746;SHT31;66104;45.456;11.064;2023-02-15T17:52:29;12.18;49.00
68746;SHT31;66104;45.456;11.064;2023-02-15T17:55:12;12.12;49.02
68746;SHT31;66104;45.456;11.064;2023-02-15T17:58:10;12.05;49.18
68746;SHT31;66104;45.456;11.064;2023-02-15T18:00:50;11.98;49.26
68746;SHT31;66104;45.456;11.064;2023-02-15T18:03:48;11.91;49.45
68746;SHT31;66104;45.456;11.064;2023-02-15T18:06:42;11.85;49.68
68746;SHT31;66104;45.456;11.064;2023-02-15T18:09:36;11.79;49.80
68746;SHT31;66104;45.456;11.064;2023-02-15T18:12:31;11.70;49.90
68746;SHT31;66104;45.456;11.064;2023-02-15T18:15:09;11.62;50.11
68746;SHT31;66104;45.456;11.064;2023-02-15T18:17:46;11.59;50.27
68746;SHT31;66104;45.456;11.064;2023-02-15T18:20:25;11.56;50.32
68746;SHT31;66104;45.456;11.064;2023-02-15T18:23:09;11.55;50.37
68746;SHT31;66104;45.456;11.064;2023-02-15T18:25:48;11.52;50.38
68746;SHT31;66104;45.456;11.064;2023-02-15T18:28:28;11.48;50.39
68746;SHT31;66104;45.456;11.064;2023-02-15T18:31:05;11.44;50.45
68746;SHT31;66104;45.456;11.064;2023-02-15T18:33:43;11.40;50.58
68746;SHT31;66104;45.456;11.064;2023-02-15T18:36:25;11.37;50.60
68746;SHT31;66104;45.456;11.064;2023-02-15T18:39:08;11.35;50.58
68746;SHT31;66104;45.456;11.064;2023-02-15T18:42:17;11.30;50.62
68746;SHT31;66104;45.456;11.064;2023-02-15T18:44:55;11.26;50.65
68746;SHT31;66104;45.456;11.064;2023-02-15T18:47:35;11.22;50.78
68746;SHT31;66104;45.456;11.064;2023-02-15T18:50:12;11.18;50.87
68746;SHT31;66104;45.456;11.064;2023-02-15T18:52:50;11.14;50.93
68746;SHT31;66104;45.456;11.064;2023-02-15T18:55:27;11.10;50.93
68746;SHT31;66104;45.456;11.064;2023-02-15T18:58:05;11.07;50.96